sensor_id;sensor_type;location;lat;lon;timestamp;pressure;altitude;pressure_sealevel;temperature;humidity
18850;BME280;4989;48.772;9.154;2022-07-21T00:03:23;98277.06;;;25.08;92.96
18850;BME280;4989;48.772;9.154;2022-07-21T00:08:25;98274.84;;;24.90;100.00
18850;BME280;4989;48.772;9.154;2022-07-21T00:13:28;98273.28;;;24.19;100.00
18850;BME280;4989;48.772;9.154;2022-07-21T00:18:30;98271.91;;;24.71;100.00
18850;BME280;4989;48.772;9.154;2022-07-21T00:23:33;98287.69;;;24.01;100.00
18850;BME280;4989;48.772;9.154;2022-07-21T00:28:35;98290.53;;;23.02;100.00
18850;BME280;4989;48.772;9.154;2022-07-21T00:33:37;98303.03;;;22.37;100.00
18850;BME280;4989;48.772;9.154;2022-07-21T00:38:39;98287.38;;;22.77;100.00
18850;BME280;4989;48.772;9.154;2022-07-21T00:43:52;98302.72;;;22.67;100.00
18850;BME280;4989;48.772;9.154;2022-07-21T00:48:54;98287.94;;;24.09;100.00
18850;BME280;4989;48.772;9.154;2022-07-21T00:53:57;98272.44;;;24.70;100.00
18850;BME280;4989;48.772;9.154;2022-07-21T00:59:01;98287.69;;;23.79;100.00
18850;BME280;4989;48.772;9.154;2022-07-21T01:04:03;98296.38;;;22.61;100.00
18850;BME280;4989;48.772;9.154;2022-07-21T01:09:05;98295.81;;;22.46;100.00
18850;BME280;4989;48.772;9.154;2022-07-21T01:14:12;98299.72;;;23.30;100.00
18850;BME280;4989;48.772;9.154;2022-07-21T01:19:15;98304.31;;;23.67;100.00
18850;BME280;4989;48.772;9.154;2022-07-21T01:24:17;98297.81;;;22.99;100.00
18850;BME280;4989;48.772;9.154;2022-07-21T01:29:19;98293.25;;;24.01;100.00
18850;BME280;4989;48.772;9.154;2022-07-21T01:34:22;98316.66;;;24.73;95.13
18850;BME280;4989;48.772;9.154;2022-07-21T01:39:24;98310.53;;;24.86;93.23
18850;BME280;4989;48.772;9.154;2022-07-21T01:44:45;98310.34;;;24.73;96.44
18850;BME280;4989;48.772;9.154;2022-07-21T01:49:47;98321.50;;;24.33;97.70
18850;BME280;4989;48.772;9.154;2022-07-21T01:54:50;98346.94;;;24.94;92.26
18850;BME280;4989;48.772;9.154;2022-07-21T01:59:52;98358.72;;;25.17;91.42
18850;BME280;4989;48.772;9.154;2022-07-21T02:04:55;98367.84;;;25.11;91.06
18850;BME280;4989;48.772;9.154;2022-07-21T02:09:57;98345.56;;;25.23;90.10
18850;BME280;4989;48.772;9.154;2022-07-21T02:15:00;98337.19;;;25.28;88.54
18850;BME280;4989;48.772;9.154;2022-07-21T02:20:03;98329.72;;;24.95;96.19
18850;BME280;4989;48.772;9.154;2022-07-21T02:25:05;98338.19;;;24.05;100.00
18850;BME280;4989;48.772;9.154;2022-07-21T02:30:08;98343.16;;;22.48;100.00
18850;BME280;4989;48.772;9.154;2022-07-21T02:35:11;98330.81;;;22.49;100.00
18850;BME280;4989;48.772;9.154;2022-07-21T02:40:13;98319.03;;;22.59;100.00
18850;BME280;4989;48.772;9.154;2022-07-21T02:45:15;98327.75;;;22.90;100.00
18850;BME280;4989;48.772;9.154;2022-07-21T02:50:24;98340.00;;;22.29;100.00
18850;BME280;4989;48.772;9.154;2022-07-21T02:55:28;98339.78;;;22.75;100.00
18850;BME280;4989;48.772;9.154;2022-07-21T03:00:31;98335.66;;;23.02;100.00
18850;BME280;4989;48.772;9.154;2022-07-21T03:05:35;98342.97;;;23.00;100.00
18850;BME280;4989;48.772;9.154;2022-07-21T03:10:39;98329.34;;;23.02;100.00
18850;BME280;4989;48.772;9.154;2022-07-21T03:15:42;98342.09;;;23.48;100.00
18850;BME280;4989;48.772;9.154;2022-07-21T03:20:45;98347.41;;;22.43;100.00
18850;BME280;4989;48.772;9.154;2022-07-21T03:25:47;98344.38;;;22.09;100.00
18850;BME280;4989;48.772;9.154;2022-07-21T03:30:50;98364.25;;;21.56;100.00
18850;BME280;4989;48.772;9.154;2022-07-21T03:35:52;98357.75;;;22.43;100.00
18850;BME280;4989;48.772;9.154;2022-07-21T03:40:54;98368.03;;;23.22;100.00
18850;BME280;4989;48.772;9.154;2022-07-21T03:45:56;98381.44;;;23.41;100.00
18850;BME280;4989;48.772;9.154;2022-07-21T03:50:58;98385.03;;;23.58;100.00
18850;BME280;4989;48.772;9.154;2022-07-21T03:56:01;98390.72;;;24.03;100.00
18850;BME280;4989;48.772;9.154;2022-07-21T04:01:03;98393.75;;;24.16;100.00
18850;BME280;4989;48.772;9.154;2022-07-21T04:06:05;98412.94;;;24.03;100.00
18850;BME280;4989;48.772;9.154;2022-07-21T04:11:12;98404.19;;;23.56;100.00
18850;BME280;4989;48.772;9.154;2022-07-21T04:16:14;98401.28;;;23.88;100.00
18850;BME280;4989;48.772;9.154;2022-07-21T04:21:16;98404.25;;;23.67;100.00
18850;BME280;4989;48.772;9.154;2022-07-21T04:26:18;98400.94;;;22.98;100.00
18850;BME280;4989;48.772;9.154;2022-07-21T04:31:20;98404.06;;;23.22;100.00
18850;BME280;4989;48.772;9.154;2022-07-21T04:36:22;98410.50;;;23.57;100.00
18850;BME280;4989;48.772;9.154;2022-07-21T04:41:25;98427.19;;;23.62;100.00
18850;BME280;4989;48.772;9.154;2022-07-21T04:46:27;98423.78;;;23.36;100.00
18850;BME280;4989;48.772;9.154;2022-07-21T04:51:29;98428.34;;;23.39;100.00
18850;BME280;4989;48.772;9.154;2022-07-21T04:56:31;98423.44;;;23.11;100.00
18850;BME280;4989;48.772;9.154;2022-07-21T05:01:36;98429.69;;;23.54;100.00
18850;BME280;4989;48.772;9.154;2022-07-21T05:06:38;98415.91;;;23.83;100.00
18850;BME280;4989;48.772;9.154;2022-07-21T05:11:40;98408.84;;;23.93;100.00
18850;BME280;4989;48.772;9.154;2022-07-21T05:16:43;98417.94;;;23.22;100.00
18850;BME280;4989;48.772;9.154;2022-07-21T05:21:45;98443.34;;;22.40;100.00
18850;BME280;4989;48.772;9.154;2022-07-21T05:26:47;98431.84;;;22.22;100.00
18850;BME280;4989;48.772;9.154;2022-07-21T05:31:49;98427.44;;;22.35;100.00
18850;BME280;4989;48.772;9.154;2022-07-21T05:36:52;98434.66;;;22.59;100.00
18850;BME280;4989;48.772;9.154;2022-07-21T05:41:54;98429.72;;;23.60;100.00
18850;BME280;4989;48.772;9.154;2022-07-21T05:46:57;98444.00;;;24.13;100.00
18850;BME280;4989;48.772;9.154;2022-07-21T05:51:59;98444.31;;;24.43;95.41
18850;BME280;4989;48.772;9.154;2022-07-21T05:57:01;98454.34;;;24.01;100.00
18850;BME280;4989;48.772;9.154;2022-07-21T06:02:04;98467.25;;;23.50;100.00
18850;BME280;4989;48.772;9.154;2022-07-21T06:07:07;98465.56;;;23.64;100.00
18850;BME280;4989;48.772;9.154;2022-07-21T06:12:09;98463.63;;;23.87;99.08
18850;BME280;4989;48.772;9.154;2022-07-21T06:17:11;98480.09;;;23.47;100.00
18850;BME280;4989;48.772;9.154;2022-07-21T06:22:14;98475.88;;;22.77;100.00
18850;BME280;4989;48.772;9.154;2022-07-21T06:27:16;98476.28;;;22.96;100.00
18850;BME280;4989;48.772;9.154;2022-07-21T06:32:18;98478.56;;;22.98;100.00
18850;BME280;4989;48.772;9.154;2022-07-21T06:37:20;98479.31;;;24.01;96.07
18850;BME280;4989;48.772;9.154;2022-07-21T06:42:23;98481.72;;;24.64;90.51
18850;BME280;4989;48.772;9.154;2022-07-21T06:47:25;98487.28;;;24.42;89.64
18850;BME280;4989;48.772;9.154;2022-07-21T06:52:32;98483.31;;;23.83;93.10
18850;BME280;4989;48.772;9.154;2022-07-21T06:57:35;98482.72;;;24.50;90.88
18850;BME280;4989;48.772;9.154;2022-07-21T07:02:37;98480.41;;;25.22;86.45
18850;BME280;4989;48.772;9.154;2022-07-21T07:07:39;98478.94;;;24.64;88.59
18850;BME280;4989;48.772;9.154;2022-07-21T07:12:42;98490.56;;;24.74;84.52
18850;BME280;4989;48.772;9.154;2022-07-21T07:18:04;98490.72;;;25.38;83.10
18850;BME280;4989;48.772;9.154;2022-07-21T07:23:06;98488.97;;;26.04;79.47
18850;BME280;4989;48.772;9.154;2022-07-21T07:28:08;98493.59;;;26.32;78.22
18850;BME280;4989;48.772;9.154;2022-07-21T07:33:11;98492.09;;;26.31;77.49
18850;BME280;4989;48.772;9.154;2022-07-21T07:38:14;98498.53;;;26.86;73.91
18850;BME280;4989;48.772;9.154;2022-07-21T07:43:17;98488.44;;;27.08;72.76
18850;BME280;4989;48.772;9.154;2022-07-21T07:48:19;98492.16;;;26.91;71.43
18850;BME280;4989;48.772;9.154;2022-07-21T07:53:21;98484.84;;;26.88;71.79
18850;BME280;4989;48.772;9.154;2022-07-21T07:58:23;98497.19;;;27.23;69.59
18850;BME280;4989;48.772;9.154;2022-07-21T08:03:27;98491.16;;;27.19;70.30
18850;BME280;4989;48.772;9.154;2022-07-21T08:08:30;98491.63;;;27.48;68.97
18850;BME280;4989;48.772;9.154;2022-07-21T08:13:32;98489.72;;;27.56;68.97
18850;BME280;4989;48.772;9.154;2022-07-21T08:18:34;98501.22;;;26.98;64.03
18850;BME280;4989;48.772;9.154;2022-07-21T08:23:37;98500.88;;;27.37;65.48
18850;BME280;4989;48.772;9.154;2022-07-21T08:28:39;98494.78;;;28.01;64.62
18850;BME280;4989;48.772;9.154;2022-07-21T08:33:41;98489.91;;;28.58;62.29
18850;BME280;4989;48.772;9.154;2022-07-21T08:38:43;98486.00;;;28.10;62.25
18850;BME280;4989;48.772;9.154;2022-07-21T08:43:45;98493.72;;;27.17;62.91
18850;BME280;4989;48.772;9.154;2022-07-21T08:48:51;98490.41;;;26.88;68.55
18850;BME280;4989;48.772;9.154;2022-07-21T08:53:54;98484.81;;;27.86;62.74
18850;BME280;4989;48.772;9.154;2022-07-21T08:58:57;98478.84;;;28.66;60.59
18850;BME280;4989;48.772;9.154;2022-07-21T09:04:33;98475.41;;;29.05;58.08
18850;BME280;4989;48.772;9.154;2022-07-21T09:09:40;98477.63;;;28.61;57.17
18850;BME280;4989;48.772;9.154;2022-07-21T09:14:42;98478.84;;;28.66;57.33
18850;BME280;4989;48.772;9.154;2022-07-21T09:19:46;98474.63;;;29.58;55.10
18850;BME280;4989;48.772;9.154;2022-07-21T09:35:27;98472.34;;;30.51;54.61
18850;BME280;4989;48.772;9.154;2022-07-21T09:40:30;98469.88;;;30.27;52.34
18850;BME280;4989;48.772;9.154;2022-07-21T09:45:37;98457.75;;;30.95;50.19
18850;BME280;4989;48.772;9.154;2022-07-21T09:50:39;98469.22;;;31.62;50.25
18850;BME280;4989;48.772;9.154;2022-07-21T09:55:42;98461.06;;;32.69;46.68
18850;BME280;4989;48.772;9.154;2022-07-21T10:00:46;98453.56;;;32.64;47.55
18850;BME280;4989;48.772;9.154;2022-07-21T10:05:49;98465.53;;;32.26;45.62
18850;BME280;4989;48.772;9.154;2022-07-21T10:10:51;98460.69;;;32.50;42.93
18850;BME280;4989;48.772;9.154;2022-07-21T10:16:14;98458.16;;;32.08;45.41
18850;BME280;4989;48.772;9.154;2022-07-21T10:21:51;98454.31;;;32.72;43.33
18850;BME280;4989;48.772;9.154;2022-07-21T10:27:09;98440.97;;;32.50;47.10
18850;BME280;4989;48.772;9.154;2022-07-21T10:32:17;98437.88;;;34.53;40.67
18850;BME280;4989;48.772;9.154;2022-07-21T10:42:40;98425.44;;;34.99;42.52
18850;BME280;4989;48.772;9.154;2022-07-21T10:47:42;98432.97;;;34.29;37.29
18850;BME280;4989;48.772;9.154;2022-07-21T11:03:32;98427.41;;;30.93;48.36
18850;BME280;4989;48.772;9.154;2022-07-21T11:19:03;98409.38;;;34.01;38.66
18850;BME280;4989;48.772;9.154;2022-07-21T11:24:05;98399.09;;;32.23;39.64
18850;BME280;4989;48.772;9.154;2022-07-21T11:29:08;98398.38;;;34.20;40.72
18850;BME280;4989;48.772;9.154;2022-07-21T11:34:10;98403.50;;;34.64;41.62
18850;BME280;4989;48.772;9.154;2022-07-21T11:39:15;98402.03;;;31.35;40.31
18850;BME280;4989;48.772;9.154;2022-07-21T11:44:25;98394.66;;;30.46;43.02
18850;BME280;4989;48.772;9.154;2022-07-21T11:49:28;98383.25;;;31.01;45.83
18850;BME280;4989;48.772;9.154;2022-07-21T11:59:36;98380.63;;;30.46;49.19
18850;BME280;4989;48.772;9.154;2022-07-21T12:04:57;98389.34;;;29.80;50.10
18850;BME280;4989;48.772;9.154;2022-07-21T12:15:25;98373.09;;;35.60;39.97
18850;BME280;4989;48.772;9.154;2022-07-21T12:20:39;98357.47;;;35.59;39.66
18850;BME280;4989;48.772;9.154;2022-07-21T12:25:43;98358.16;;;31.91;45.40
18850;BME280;4989;48.772;9.154;2022-07-21T12:30:50;98371.19;;;31.22;48.19
18850;BME280;4989;48.772;9.154;2022-07-21T12:36:08;98370.94;;;32.08;46.28
18850;BME280;4989;48.772;9.154;2022-07-21T12:41:15;98368.81;;;35.24;38.23
18850;BME280;4989;48.772;9.154;2022-07-21T12:46:35;98364.00;;;36.15;38.37
18850;BME280;4989;48.772;9.154;2022-07-21T12:51:38;98372.94;;;35.40;39.58
18850;BME280;4989;48.772;9.154;2022-07-21T12:56:41;98370.63;;;34.94;40.39
18850;BME280;4989;48.772;9.154;2022-07-21T13:01:43;98374.78;;;36.27;38.13
18850;BME280;4989;48.772;9.154;2022-07-21T13:06:46;98375.50;;;36.64;38.05
18850;BME280;4989;48.772;9.154;2022-07-21T13:11:48;98374.91;;;35.20;39.67
18850;BME280;4989;48.772;9.154;2022-07-21T13:16:50;98371.75;;;34.06;42.68
18850;BME280;4989;48.772;9.154;2022-07-21T13:21:54;98369.91;;;35.73;39.39
18850;BME280;4989;48.772;9.154;2022-07-21T13:26:57;98373.19;;;33.90;42.40
18850;BME280;4989;48.772;9.154;2022-07-21T13:31:59;98363.63;;;32.66;44.05
18850;BME280;4989;48.772;9.154;2022-07-21T13:37:01;98354.63;;;32.06;45.98
18850;BME280;4989;48.772;9.154;2022-07-21T13:42:18;98359.50;;;32.06;46.08
18850;BME280;4989;48.772;9.154;2022-07-21T13:47:40;98357.31;;;33.21;43.87
18850;BME280;4989;48.772;9.154;2022-07-21T13:52:42;98352.25;;;34.26;42.02
18850;BME280;4989;48.772;9.154;2022-07-21T13:57:45;98353.09;;;34.36;41.06
18850;BME280;4989;48.772;9.154;2022-07-21T14:02:47;98340.38;;;35.22;40.54
18850;BME280;4989;48.772;9.154;2022-07-21T14:07:49;98339.22;;;35.52;39.15
18850;BME280;4989;48.772;9.154;2022-07-21T14:12:52;98336.66;;;35.46;36.70
18850;BME280;4989;48.772;9.154;2022-07-21T14:17:54;98339.25;;;33.72;42.05
18850;BME280;4989;48.772;9.154;2022-07-21T14:22:59;98333.69;;;33.09;43.48
18850;BME280;4989;48.772;9.154;2022-07-21T14:28:01;98326.59;;;32.93;44.00
18850;BME280;4989;48.772;9.154;2022-07-21T14:33:03;98342.81;;;32.08;46.17
18850;BME280;4989;48.772;9.154;2022-07-21T14:38:05;98337.56;;;32.20;43.20
18850;BME280;4989;48.772;9.154;2022-07-21T14:43:07;98347.53;;;31.38;47.48
18850;BME280;4989;48.772;9.154;2022-07-21T14:48:09;98333.22;;;30.64;48.19
18850;BME280;4989;48.772;9.154;2022-07-21T14:53:12;98337.41;;;31.07;47.97
18850;BME280;4989;48.772;9.154;2022-07-21T14:58:14;98345.34;;;30.58;49.59
18850;BME280;4989;48.772;9.154;2022-07-21T15:03:16;98332.00;;;31.09;48.21
18850;BME280;4989;48.772;9.154;2022-07-21T15:08:19;98322.19;;;30.87;47.99
18850;BME280;4989;48.772;9.154;2022-07-21T15:13:21;98328.63;;;31.02;48.20
18850;BME280;4989;48.772;9.154;2022-07-21T15:18:24;98336.84;;;30.72;49.63
18850;BME280;4989;48.772;9.154;2022-07-21T15:23:26;98327.53;;;30.48;49.45
18850;BME280;4989;48.772;9.154;2022-07-21T15:28:28;98315.69;;;30.99;48.14
18850;BME280;4989;48.772;9.154;2022-07-21T15:33:31;98319.38;;;30.87;43.41
18850;BME280;4989;48.772;9.154;2022-07-21T15:38:33;98322.19;;;30.37;49.33
18850;BME280;4989;48.772;9.154;2022-07-21T15:43:35;98316.38;;;29.72;51.65
18850;BME280;4989;48.772;9.154;2022-07-21T15:48:38;98324.38;;;29.89;51.03
18850;BME280;4989;48.772;9.154;2022-07-21T15:53:40;98313.03;;;29.74;52.41
18850;BME280;4989;48.772;9.154;2022-07-21T15:58:43;98310.34;;;29.68;52.11
18850;BME280;4989;48.772;9.154;2022-07-21T16:04:04;98301.91;;;30.23;45.17
18850;BME280;4989;48.772;9.154;2022-07-21T16:09:06;98300.03;;;30.26;45.47
18850;BME280;4989;48.772;9.154;2022-07-21T16:14:09;98295.34;;;30.49;44.68
18850;BME280;4989;48.772;9.154;2022-07-21T16:19:13;98286.00;;;30.26;45.43
18850;BME280;4989;48.772;9.154;2022-07-21T16:24:16;98285.81;;;29.82;50.28
18850;BME280;4989;48.772;9.154;2022-07-21T16:29:19;98285.00;;;29.74;51.43
18850;BME280;4989;48.772;9.154;2022-07-21T16:34:22;98275.59;;;29.50;52.38
18850;BME280;4989;48.772;9.154;2022-07-21T16:39:24;98275.25;;;29.33;53.31
18850;BME280;4989;48.772;9.154;2022-07-21T16:44:27;98271.38;;;29.22;51.33
18850;BME280;4989;48.772;9.154;2022-07-21T16:49:29;98268.78;;;29.25;55.19
18850;BME280;4989;48.772;9.154;2022-07-21T16:54:32;98268.47;;;29.49;53.48
18850;BME280;4989;48.772;9.154;2022-07-21T16:59:34;98267.59;;;29.54;52.30
18850;BME280;4989;48.772;9.154;2022-07-21T17:04:37;98272.13;;;29.57;52.90
18850;BME280;4989;48.772;9.154;2022-07-21T17:09:41;98269.22;;;29.63;44.86
18850;BME280;4989;48.772;9.154;2022-07-21T17:14:44;98269.53;;;29.80;48.51
18850;BME280;4989;48.772;9.154;2022-07-21T17:19:46;98276.47;;;29.79;51.76
18850;BME280;4989;48.772;9.154;2022-07-21T17:24:49;98280.56;;;29.44;54.05
18850;BME280;4989;48.772;9.154;2022-07-21T17:29:51;98282.56;;;29.22;54.73
18850;BME280;4989;48.772;9.154;2022-07-21T17:34:54;98274.22;;;29.09;55.17
18850;BME280;4989;48.772;9.154;2022-07-21T17:39:57;98274.91;;;28.75;55.85
18850;BME280;4989;48.772;9.154;2022-07-21T17:44:59;98263.16;;;28.64;55.08
18850;BME280;4989;48.772;9.154;2022-07-21T17:50:03;98277.47;;;28.47;54.81
18850;BME280;4989;48.772;9.154;2022-07-21T17:55:06;98275.31;;;28.40;55.75
18850;BME280;4989;48.772;9.154;2022-07-21T18:00:09;98274.97;;;28.30;56.65
18850;BME280;4989;48.772;9.154;2022-07-21T18:05:11;98276.78;;;28.14;56.95
18850;BME280;4989;48.772;9.154;2022-07-21T18:10:14;98277.22;;;28.05;56.87
18850;BME280;4989;48.772;9.154;2022-07-21T18:15:16;98286.44;;;28.00;56.84
18850;BME280;4989;48.772;9.154;2022-07-21T18:20:19;98280.84;;;28.00;56.66
18850;BME280;4989;48.772;9.154;2022-07-21T18:25:21;98282.53;;;27.90;57.23
18850;BME280;4989;48.772;9.154;2022-07-21T18:30:24;98280.13;;;27.80;56.75
18850;BME280;4989;48.772;9.154;2022-07-21T18:35:27;98286.00;;;27.77;58.17
18850;BME280;4989;48.772;9.154;2022-07-21T18:40:31;98288.03;;;27.63;58.22
18850;BME280;4989;48.772;9.154;2022-07-21T18:45:33;98282.19;;;27.61;58.29
18850;BME280;4989;48.772;9.154;2022-07-21T18:50:39;98289.50;;;27.64;58.71
18850;BME280;4989;48.772;9.154;2022-07-21T18:55:42;98287.38;;;27.70;58.19
18850;BME280;4989;48.772;9.154;2022-07-21T19:00:44;98291.47;;;27.69;57.69
18850;BME280;4989;48.772;9.154;2022-07-21T19:05:47;98298.41;;;27.62;57.66
18850;BME280;4989;48.772;9.154;2022-07-21T19:10:49;98300.25;;;27.60;58.16
18850;BME280;4989;48.772;9.154;2022-07-21T19:15:51;98306.59;;;27.60;56.52
18850;BME280;4989;48.772;9.154;2022-07-21T19:20:54;98313.56;;;27.54;57.67
18850;BME280;4989;48.772;9.154;2022-07-21T19:25:56;98318.66;;;27.50;58.56
18850;BME280;4989;48.772;9.154;2022-07-21T19:30:59;98310.53;;;27.52;52.36
18850;BME280;4989;48.772;9.154;2022-07-21T19:36:02;98328.19;;;27.41;52.62
18850;BME280;4989;48.772;9.154;2022-07-21T19:41:04;98331.63;;;27.09;53.15
18850;BME280;4989;48.772;9.154;2022-07-21T19:46:06;98332.22;;;27.02;53.39
18850;BME280;4989;48.772;9.154;2022-07-21T19:51:08;98334.41;;;26.90;59.19
18850;BME280;4989;48.772;9.154;2022-07-21T19:56:11;98339.22;;;27.14;57.73
18850;BME280;4989;48.772;9.154;2022-07-21T20:01:13;98339.97;;;27.15;58.94
18850;BME280;4989;48.772;9.154;2022-07-21T20:06:15;98342.91;;;26.98;59.07
18850;BME280;4989;48.772;9.154;2022-07-21T20:11:18;98335.09;;;26.97;57.75
18850;BME280;4989;48.772;9.154;2022-07-21T20:16:20;98348.19;;;27.02;60.21
18850;BME280;4989;48.772;9.154;2022-07-21T20:21:22;98340.38;;;27.00;57.51
18850;BME280;4989;48.772;9.154;2022-07-21T20:26:24;98350.44;;;26.84;60.66
18850;BME280;4989;48.772;9.154;2022-07-21T20:31:27;98348.78;;;26.94;57.29
18850;BME280;4989;48.772;9.154;2022-07-21T20:36:30;98351.72;;;26.28;58.61
18850;BME280;4989;48.772;9.154;2022-07-21T20:41:33;98347.19;;;26.56;62.70
18850;BME280;4989;48.772;9.154;2022-07-21T20:46:35;98344.28;;;26.67;58.91
18850;BME280;4989;48.772;9.154;2022-07-21T20:51:38;98341.16;;;26.21;62.89
18850;BME280;4989;48.772;9.154;2022-07-21T20:56:40;98359.38;;;26.53;62.06
18850;BME280;4989;48.772;9.154;2022-07-21T21:02:02;98349.63;;;26.65;62.44
18850;BME280;4989;48.772;9.154;2022-07-21T21:07:05;98366.28;;;26.16;60.00
18850;BME280;4989;48.772;9.154;2022-07-21T21:12:07;98361.59;;;25.99;60.51
18850;BME280;4989;48.772;9.154;2022-07-21T21:17:09;98356.81;;;25.94;65.15
18850;BME280;4989;48.772;9.154;2022-07-21T21:22:11;98360.03;;;26.34;61.69
18850;BME280;4989;48.772;9.154;2022-07-21T21:27:14;98348.41;;;26.00;63.08
18850;BME280;4989;48.772;9.154;2022-07-21T21:32:17;98351.34;;;26.13;64.19
18850;BME280;4989;48.772;9.154;2022-07-21T21:37:19;98355.97;;;26.35;63.42
18850;BME280;4989;48.772;9.154;2022-07-21T21:42:21;98350.63;;;26.37;62.91
18850;BME280;4989;48.772;9.154;2022-07-21T21:47:24;98349.16;;;26.31;63.43
18850;BME280;4989;48.772;9.154;2022-07-21T21:52:26;98354.75;;;26.31;63.74
18850;BME280;4989;48.772;9.154;2022-07-21T21:57:28;98356.31;;;25.49;62.82
18850;BME280;4989;48.772;9.154;2022-07-21T22:02:31;98352.31;;;25.80;65.52
18850;BME280;4989;48.772;9.154;2022-07-21T22:07:33;98356.56;;;25.92;64.61
18850;BME280;4989;48.772;9.154;2022-07-21T22:12:36;98364.28;;;26.11;64.49
18850;BME280;4989;48.772;9.154;2022-07-21T22:17:38;98360.38;;;25.89;62.84
18850;BME280;4989;48.772;9.154;2022-07-21T22:22:40;98360.94;;;25.82;64.42
18850;BME280;4989;48.772;9.154;2022-07-21T22:27:42;98363.41;;;25.91;64.43
18850;BME280;4989;48.772;9.154;2022-07-21T22:32:45;98355.78;;;25.97;64.10
18850;BME280;4989;48.772;9.154;2022-07-21T22:37:48;98363.41;;;25.91;64.60
18850;BME280;4989;48.772;9.154;2022-07-21T22:42:50;98359.97;;;25.74;62.95
18850;BME280;4989;48.772;9.154;2022-07-21T22:47:52;98359.41;;;25.81;64.85
18850;BME280;4989;48.772;9.154;2022-07-21T22:52:55;98346.03;;;25.74;66.39
18850;BME280;4989;48.772;9.154;2022-07-21T22:57:57;98358.44;;;25.73;64.27
18850;BME280;4989;48.772;9.154;2022-07-21T23:02:59;98358.75;;;25.64;66.54
18850;BME280;4989;48.772;9.154;2022-07-21T23:08:03;98355.16;;;25.69;66.86
18850;BME280;4989;48.772;9.154;2022-07-21T23:13:05;98357.00;;;25.61;63.85
18850;BME280;4989;48.772;9.154;2022-07-21T23:18:08;98354.81;;;25.48;65.95
18850;BME280;4989;48.772;9.154;2022-07-21T23:23:10;98358.50;;;25.62;67.27
18850;BME280;4989;48.772;9.154;2022-07-21T23:28:12;98355.16;;;25.69;66.14
18850;BME280;4989;48.772;9.154;2022-07-21T23:33:14;98350.59;;;25.71;65.78
18850;BME280;4989;48.772;9.154;2022-07-21T23:38:16;98348.66;;;25.61;66.52
18850;BME280;4989;48.772;9.154;2022-07-21T23:43:19;98350.41;;;25.64;66.24
18850;BME280;4989;48.772;9.154;2022-07-21T23:48:21;98350.41;;;25.64;66.29
18850;BME280;4989;48.772;9.154;2022-07-21T23:53:23;98353.97;;;25.58;65.64
18850;BME280;4989;48.772;9.154;2022-07-21T23:58:25;98349.25;;;25.48;67.37
